Time;durP1;ratioP1;P1;durP2;ratioP2;P2;SDS_P1;SDS_P2;PMS_P1;PMS_P2;Temp;Humidity;BMP_temperature;BMP_pressure;BME280_temperature;BME280_humidity;BME280_pressure;Samples;Min_cycle;Max_cycle;Signal;HPM_P1;HPM_P2
2024/01/09 00:01:30;;;;;;;12.40;5.05;;;-8.30;99.90;;;-6.54;100.00;102856.19;4940204;29;20033;-75
2024/01/09 00:03:56;;;;;;;13.73;5.45;;;;;;;-6.60;100.00;102863.47;4934759;29;20485;-75
2024/01/09 00:06:23;;;;;;;13.77;5.47;;;;;;;-6.60;100.00;102856.38;4935019;29;20039;-75
2024/01/09 00:08:49;;;;;;;12.98;6.30;;;;;;;-6.53;100.00;102862.34;4937960;29;20475;-74
2024/01/09 00:11:15;;;;;;;12.93;5.00;;;;;;;-6.62;100.00;102863.53;4939332;29;20087;-75
2024/01/09 00:13:42;;;;;;;15.68;5.13;;;;;;;-6.54;100.00;102855.28;4946288;29;20094;-75
2024/01/09 00:16:08;;;;;;;11.60;4.75;;;-8.30;99.90;;;-6.58;100.00;102854.53;4940027;29;20036;-75
2024/01/09 00:18:33;;;;;;;13.88;4.72;;;-8.40;99.90;;;-6.66;100.00;102853.91;4951393;29;20439;-75
2024/01/09 00:20:59;;;;;;;13.13;5.03;;;-8.40;99.90;;;-6.69;100.00;102843.38;4938698;28;20506;-76
2024/01/09 00:23:25;;;;;;;13.68;6.07;;;-8.40;99.90;;;-6.79;100.00;102850.78;4962627;28;20119;-76
2024/01/09 00:25:50;;;;;;;12.65;5.15;;;-8.40;99.90;;;-6.77;100.00;102845.44;4957540;28;20047;-76
2024/01/09 00:28:16;;;;;;;10.00;5.22;;;-8.40;99.90;;;-6.76;100.00;102847.16;4953379;29;20050;-75
2024/01/09 00:30:42;;;;;;;12.85;5.68;;;-8.40;99.90;;;-6.81;100.00;102837.56;4943242;29;20071;-76
2024/01/09 00:33:08;;;;;;;13.43;5.80;;;-8.30;99.90;;;-6.74;100.00;102830.28;4942711;28;20050;-75
2024/01/09 00:35:34;;;;;;;16.77;6.25;;;-8.20;99.90;;;-6.69;100.00;102848.69;4941257;28;20046;-75
2024/01/09 00:37:59;;;;;;;17.45;6.45;;;-8.10;99.90;;;-6.55;100.00;102829.66;4949873;28;20476;-75
2024/01/09 00:40:25;;;;;;;18.27;6.95;;;-8.20;99.90;;;-6.74;100.00;102842.69;4956575;28;20062;-75
2024/01/09 00:42:51;;;;;;;13.40;5.10;;;-8.20;99.90;;;-6.55;100.00;102837.63;4952899;29;20124;-75
2024/01/09 00:45:17;;;;;;;13.95;5.15;;;-8.20;99.90;;;-6.56;100.00;102834.13;4949521;28;20404;-74
2024/01/09 00:47:42;;;;;;;13.50;5.35;;;-8.30;99.90;;;-6.61;100.00;102830.75;4943446;29;20035;-75
2024/01/09 00:50:09;;;;;;;13.27;4.85;;;-8.50;99.90;;;-6.66;100.00;102837.97;4955321;28;20048;-75
2024/01/09 00:52:34;;;;;;;11.07;4.88;;;-8.70;99.90;;;-6.89;100.00;102839.63;4938176;29;20422;-75
2024/01/09 00:55:00;;;;;;;13.75;4.70;;;-8.80;99.90;;;-6.95;100.00;102847.75;4939543;29;20058;-75
2024/01/09 00:57:26;;;;;;;13.60;5.43;;;-8.90;99.90;;;-7.03;100.00;102849.78;4939177;29;20046;-75
2024/01/09 00:59:51;;;;;;;11.32;5.30;;;-8.90;99.90;;;-7.04;100.00;102856.00;4947443;29;20467;-75
2024/01/09 01:02:17;;;;;;;13.60;5.60;;;-8.90;99.90;;;-7.06;100.00;102839.28;4940618;28;20071;-75
2024/01/09 01:04:43;;;;;;;12.20;4.90;;;-9.00;99.90;;;-7.08;100.00;102842.84;4938018;29;20032;-75
2024/01/09 01:07:09;;;;;;;11.85;4.72;;;-9.10;99.90;;;-7.12;100.00;102846.50;4939513;29;20043;-76
2024/01/09 01:09:35;;;;;;;12.77;5.38;;;-9.10;99.90;;;-7.27;100.00;102837.22;4948706;28;20130;-75
2024/01/09 01:12:00;;;;;;;12.30;5.00;;;-9.20;99.90;;;-7.23;100.00;102843.28;4941480;28;20039;-75
2024/01/09 01:14:26;;;;;;;10.30;4.93;;;-9.20;99.90;;;-7.25;100.00;102845.13;4945075;29;20093;-75
2024/01/09 01:16:52;;;;;;;13.70;5.75;;;-9.30;99.90;;;-7.29;100.00;102848.78;4945362;28;20510;-75
2024/01/09 01:19:17;;;;;;;12.23;4.90;;;-9.40;99.90;;;-7.33;100.00;102847.16;4950163;29;20046;-75
2024/01/09 01:21:43;;;;;;;12.25;5.43;;;-9.40;99.90;;;-7.35;100.00;102855.16;4938298;28;20673;-75
2024/01/09 01:24:09;;;;;;;13.23;5.05;;;-9.40;99.90;;;-7.35;100.00;102854.28;4959634;28;20039;-75
2024/01/09 01:26:35;;;;;;;14.80;5.22;;;-9.40;99.90;;;-7.37;100.00;102856.97;4942182;29;20368;-75
2024/01/09 01:29:01;;;;;;;15.23;5.07;;;-9.40;99.90;;;-7.48;100.00;102859.94;4940016;28;20181;-75
2024/01/09 01:31:26;;;;;;;12.63;5.07;;;-9.40;99.90;;;-7.47;100.00;102859.03;4943625;29;20043;-75
2024/01/09 01:33:53;;;;;;;13.27;5.55;;;-9.40;99.90;;;-7.45;100.00;102862.50;4941672;28;20050;-75
2024/01/09 01:36:19;;;;;;;13.63;5.60;;;-9.50;99.90;;;-7.48;100.00;102865.25;4950330;28;20039;-75
2024/01/09 01:38:44;;;;;;;13.07;5.30;;;-9.50;99.90;;;-7.65;100.00;102865.72;4938245;28;20078;-75
2024/01/09 01:41:10;;;;;;;11.55;5.15;;;-9.30;99.90;;;-7.59;100.00;102864.69;4937249;29;20055;-75
2024/01/09 01:43:36;;;;;;;12.23;4.82;;;-9.30;99.90;;;-7.47;100.00;102880.25;4942059;28;20043;-75
2024/01/09 01:46:04;;;;;;;14.10;5.90;;;-9.20;99.90;;;-7.59;100.00;102876.16;4944627;29;20031;-75
2024/01/09 01:48:31;;;;;;;13.95;5.60;;;-9.10;99.90;;;-7.40;100.00;102879.16;4944124;29;20447;-75
2024/01/09 01:50:58;;;;;;;13.63;5.10;;;-9.10;99.90;;;-7.43;100.00;102873.06;4939985;28;20044;-75
2024/01/09 01:53:26;;;;;;;12.75;5.30;;;-9.10;99.90;;;-7.38;100.00;102872.03;4950219;28;20491;-75
2024/01/09 01:55:52;;;;;;;12.27;4.90;;;-9.10;99.90;;;-7.33;100.00;102873.69;4944364;29;20039;-75
2024/01/09 01:58:19;;;;;;;14.80;5.80;;;-9.10;99.90;;;-7.24;100.00;102878.72;4941834;29;20098;-74
2024/01/09 02:00:45;;;;;;;12.52;5.32;;;-9.10;99.90;;;-7.27;100.00;102873.50;4943687;28;20448;-74
2024/01/09 02:03:12;;;;;;;14.82;5.30;;;-9.10;99.90;;;-7.29;100.00;102868.25;4962356;28;20082;-75
2024/01/09 02:05:39;;;;;;;17.38;5.63;;;-9.20;99.90;;;-7.26;100.00;102875.22;4937351;29;20082;-75
2024/01/09 02:08:05;;;;;;;15.73;5.93;;;-9.20;99.90;;;-7.35;100.00;102872.84;4939659;29;20103;-74
2024/01/09 02:10:31;;;;;;;11.43;4.85;;;-9.10;99.90;;;-7.31;100.00;102867.41;4940991;29;20781;-74
2024/01/09 02:12:57;;;;;;;13.25;5.70;;;-9.20;99.90;;;-7.33;100.00;102863.91;4937087;29;20074;-75
2024/01/09 02:15:22;;;;;;;16.50;5.95;;;-9.30;99.90;;;-7.37;100.00;102859.63;4951553;28;20514;-75
2024/01/09 02:17:48;;;;;;;13.57;5.10;;;-9.30;99.90;;;-7.33;100.00;102874.53;4943375;28;20062;-75
2024/01/09 02:20:14;;;;;;;12.52;5.00;;;-9.40;99.90;;;-7.38;100.00;102872.03;4948657;29;20071;-75
2024/01/09 02:22:41;;;;;;;14.35;5.28;;;-9.40;99.90;;;-7.45;100.00;102873.09;4936430;29;20035;-75
2024/01/09 02:25:07;;;;;;;15.35;5.43;;;-9.40;99.90;;;-7.50;100.00;102864.41;4951012;28;20039;-73
2024/01/09 02:27:59;;;;;;;11.77;4.88;;;-9.50;99.90;;;-7.46;100.00;102873.16;4947305;28;20040;-73
2024/01/09 02:30:25;;;;;;;12.32;4.97;;;-9.50;99.90;;;-7.55;100.00;102869.88;4950815;28;20044;-74
2024/01/09 02:32:53;;;;;;;11.05;4.82;;;-9.50;99.90;;;-7.54;100.00;102871.63;4934801;29;20483;-73
2024/01/09 02:35:19;;;;;;;;;;;-9.50;99.90;;;-7.61;100.00;102867.38;4941520;28;20039;-73
2024/01/09 02:37:44;;;;;;;12.07;4.05;;;-9.50;99.90;;;-7.71;100.00;102869.41;4940980;28;19919;-74
2024/01/09 02:40:10;;;;;;;14.15;5.28;;;-9.50;99.90;;;-7.59;100.00;102862.03;4941160;28;20079;-74
2024/01/09 02:42:36;;;;;;;11.98;4.97;;;-9.40;99.90;;;-7.53;100.00;102856.56;4941833;28;20063;-75
2024/01/09 02:45:02;;;;;;;12.65;5.13;;;-9.40;99.90;;;-7.66;100.00;102864.88;4967348;28;20483;-74
2024/01/09 02:47:28;;;;;;;13.30;5.38;;;-9.40;99.90;;;-7.53;100.00;102857.44;4939509;29;20058;-74
2024/01/09 02:49:53;;;;;;;12.35;4.43;;;-9.40;99.90;;;-7.56;100.00;102867.25;4941258;28;20039;-74
2024/01/09 02:52:19;;;;;;;14.43;5.00;;;-9.40;99.90;;;-7.51;100.00;102866.22;4939399;29;20035;-74
2024/01/09 02:54:45;;;;;;;14.88;5.40;;;-9.50;99.90;;;-7.54;100.00;102857.47;4935585;29;20076;-75
2024/01/09 02:57:12;;;;;;;13.00;5.10;;;-9.50;99.90;;;-7.60;100.00;102855.84;4937906;28;20032;-74
2024/01/09 02:59:39;;;;;;;12.15;5.22;;;-9.40;99.90;;;-7.55;100.00;102863.69;4940481;29;20130;-74
2024/01/09 03:02:05;;;;;;;11.40;5.20;;;-9.50;99.90;;;-7.64;100.00;102856.00;4939045;29;20035;-74
2024/01/09 03:04:31;;;;;;;13.18;5.20;;;-9.50;99.90;;;-7.71;100.00;102842.91;4934275;29;20039;-75
2024/01/09 03:06:57;;;;;;;12.57;5.25;;;-9.50;99.90;;;-7.60;100.00;102847.91;4936077;29;22015;-74
2024/01/09 03:09:24;;;;;;;11.23;4.80;;;-9.50;99.90;;;-7.59;100.00;102851.44;4935990;29;20623;-74
2024/01/09 03:11:50;;;;;;;11.82;4.85;;;-9.40;99.90;;;-7.51;100.00;102857.38;4935627;29;20102;-74
2024/01/09 03:14:15;;;;;;;14.10;5.60;;;-9.50;99.90;;;-7.62;100.00;102862.13;4935763;29;20036;-75
2024/01/09 03:16:41;;;;;;;10.40;4.43;;;-9.50;99.90;;;-7.51;100.00;102860.03;4939903;29;20062;-74
2024/01/09 03:19:07;;;;;;;9.85;4.40;;;-9.60;99.90;;;-7.59;100.00;102860.25;4948645;28;20093;-74
2024/01/09 03:21:33;;;;;;;14.00;4.90;;;-9.60;99.90;;;-7.59;100.00;102862.91;4947082;28;20035;-74
2024/01/09 03:23:58;;;;;;;11.82;4.82;;;-9.60;99.90;;;-7.69;100.00;102851.72;4938571;29;20082;-74
2024/01/09 03:26:24;;;;;;;11.82;4.75;;;-9.60;99.90;;;-7.71;100.00;102855.31;4943569;28;20036;-74
2024/01/09 03:28:50;;;;;;;13.93;5.07;;;-9.60;99.90;;;-7.72;100.00;102854.41;4937221;29;20052;-74
2024/01/09 03:31:24;;;;;;;11.48;4.38;;;-9.60;99.90;;;-7.67;100.00;102855.19;4936643;29;20046;-74
2024/01/09 03:33:50;;;;;;;12.82;5.13;;;-9.70;99.90;;;-7.68;100.00;102856.09;4943435;28;20562;-74
2024/01/09 03:36:17;;;;;;;12.23;5.10;;;-9.70;99.90;;;-7.72;100.00;102853.56;4949638;29;20039;-74
2024/01/09 03:38:44;;;;;;;14.47;5.17;;;-9.60;99.90;;;-7.74;100.00;102864.19;4940856;28;20899;-74
2024/01/09 03:41:11;;;;;;;14.00;4.68;;;-9.60;99.90;;;-7.66;100.00;102861.34;4944064;28;20653;-74
2024/01/09 03:43:37;;;;;;;11.88;4.65;;;-9.60;99.90;;;-7.72;100.00;102853.56;4948452;29;20054;-74
2024/01/09 03:46:03;;;;;;;12.50;4.75;;;-9.60;99.90;;;-7.72;100.00;102850.91;4938595;28;20035;-74
2024/01/09 03:48:29;;;;;;;13.35;4.78;;;-9.70;99.90;;;-7.72;100.00;102857.06;4952339;28;20487;-74
2024/01/09 03:50:55;;;;;;;13.10;5.18;;;-9.80;99.90;;;-7.83;100.00;102860.03;4964115;28;20051;-74
2024/01/09 03:53:20;;;;;;;10.95;4.45;;;-9.80;99.90;;;-7.78;100.00;102857.25;4954871;28;20058;-74
2024/01/09 03:55:46;;;;;;;11.30;4.65;;;-9.80;99.90;;;-7.78;100.00;102856.41;4946201;28;20050;-74
2024/01/09 03:58:12;;;;;;;10.88;4.45;;;-9.80;99.90;;;-7.85;100.00;102851.25;4939376;28;20495;-75
2024/01/09 04:00:38;;;;;;;14.40;5.15;;;-9.70;99.90;;;-7.78;100.00;102851.94;4939310;29;20047;-74
2024/01/09 04:03:05;;;;;;;10.90;4.55;;;-9.70;99.90;;;-7.76;100.00;102844.81;4962594;28;20078;-74
2024/01/09 04:05:31;;;;;;;14.60;4.88;;;-9.60;99.90;;;-7.75;100.00;102845.72;4952594;29;20039;-74
2024/01/09 04:07:57;;;;;;;11.45;4.45;;;-9.50;99.90;;;-7.68;100.00;102852.56;4948600;28;20036;-74
2024/01/09 04:10:22;;;;;;;10.88;4.20;;;-9.40;99.90;;;-7.76;100.00;102839.53;4942379;28;20105;-74
2024/01/09 04:12:48;;;;;;;13.40;5.32;;;-9.40;99.90;;;-7.68;100.00;102844.59;4953613;28;20118;-74
2024/01/09 04:15:14;;;;;;;11.80;4.88;;;-9.50;99.90;;;-7.70;100.00;102847.28;4954212;29;20496;-74
2024/01/09 04:17:40;;;;;;;13.02;4.43;;;-9.50;99.90;;;-7.67;100.00;102841.94;4941562;28;20042;-74
2024/01/09 04:20:11;;;;;;;15.43;5.38;;;-9.60;99.90;;;-7.68;100.00;102840.19;4941964;29;20036;-74
2024/01/09 04:22:36;;;;;;;11.38;4.18;;;-9.60;99.90;;;-7.70;100.00;102842.00;4942750;29;20039;-74
2024/01/09 04:25:03;;;;;;;10.98;4.63;;;-9.70;99.90;;;-7.78;100.00;102844.00;4962930;28;20063;-74
2024/01/09 04:27:28;;;;;;;12.35;4.90;;;-9.60;99.90;;;-7.74;100.00;102839.50;4948929;29;20090;-74
2024/01/09 04:29:54;;;;;;;12.32;4.35;;;-9.70;99.90;;;-7.79;100.00;102834.31;4967798;28;20039;-74
2024/01/09 04:32:20;;;;;;;10.50;4.53;;;-9.80;99.90;;;-7.78;100.00;102840.50;4943896;28;20048;-74
2024/01/09 04:34:46;;;;;;;13.43;4.95;;;-9.80;99.90;;;-7.85;100.00;102840.66;4937691;29;20059;-74
2024/01/09 04:37:11;;;;;;;14.35;4.50;;;-9.80;99.90;;;-7.87;100.00;102834.50;4943989;29;20039;-74
2024/01/09 04:39:37;;;;;;;12.27;4.57;;;-9.90;99.90;;;-7.91;100.00;102839.97;4938463;29;20178;-74
2024/01/09 04:42:03;;;;;;;16.15;4.70;;;-9.90;99.90;;;-8.04;100.00;102837.63;4948576;29;20484;-75
2024/01/09 04:44:28;;;;;;;11.38;4.60;;;-9.90;99.90;;;-7.96;100.00;102829.47;4943784;29;20040;-74
2024/01/09 04:46:54;;;;;;;15.25;4.82;;;-9.70;99.90;;;-7.83;100.00;102833.50;4942023;29;20042;-74
2024/01/09 04:49:20;;;;;;;9.75;4.38;;;-9.80;99.90;;;-7.85;100.00;102834.50;4950467;28;20046;-74
2024/01/09 04:51:45;;;;;;;16.73;5.22;;;-9.80;99.90;;;-7.95;100.00;102828.56;4939775;28;20037;-74
2024/01/09 04:54:11;;;;;;;11.30;4.20;;;-9.80;99.90;;;-7.95;100.00;102826.81;4964248;28;20055;-74
2024/01/09 04:56:37;;;;;;;12.05;4.10;;;-9.80;99.90;;;-7.97;100.00;102828.59;4944314;28;20050;-74
2024/01/09 04:59:02;;;;;;;13.32;4.97;;;-9.70;99.90;;;-7.92;100.00;102828.47;4965150;28;20500;-74
2024/01/09 05:01:28;;;;;;;14.95;5.57;;;-9.70;99.90;;;-7.92;100.00;102823.19;4938550;29;20086;-74
2024/01/09 05:03:54;;;;;;;15.10;5.60;;;-9.70;99.90;;;-7.89;100.00;102827.53;4938228;29;20412;-74
2024/01/09 05:06:20;;;;;;;12.27;5.40;;;-9.60;99.90;;;-7.98;100.00;102820.72;4944214;29;20039;-74
2024/01/09 05:08:47;;;;;;;14.68;4.85;;;-9.50;99.90;;;-7.88;100.00;102818.69;4939505;29;20045;-74
2024/01/09 05:11:13;;;;;;;14.38;5.20;;;-9.50;99.90;;;-7.71;100.00;102826.16;4953117;28;20495;-74
2024/01/09 05:13:38;;;;;;;13.35;4.93;;;-9.60;99.90;;;-7.74;100.00;102827.09;4945109;28;20047;-74
2024/01/09 05:16:04;;;;;;;14.00;5.07;;;-9.60;99.90;;;-7.75;100.00;102837.75;4950176;29;20050;-74
2024/01/09 05:18:31;;;;;;;14.38;5.05;;;-9.70;99.90;;;-7.76;100.00;102836.88;4957522;28;20043;-73
2024/01/09 05:20:57;;;;;;;12.63;4.75;;;-9.80;99.90;;;-7.87;100.00;102831.00;4942107;29;20093;-75
2024/01/09 05:23:23;;;;;;;12.10;5.15;;;-9.80;99.90;;;-7.94;100.00;102835.59;4937795;29;20131;-75
2024/01/09 05:25:49;;;;;;;10.88;4.57;;;-9.80;99.90;;;-7.92;100.00;102830.28;4945152;29;20632;-75
2024/01/09 05:28:15;;;;;;;16.30;5.28;;;-9.70;99.90;;;-7.93;100.00;102829.41;4942597;28;20039;-75
2024/01/09 05:30:42;;;;;;;13.25;5.25;;;-9.80;99.90;;;-7.98;100.00;102829.50;4956162;28;20039;-75
2024/01/09 05:33:08;;;;;;;12.13;5.72;;;-9.70;99.90;;;-7.89;100.00;102835.50;4940358;29;20142;-75
2024/01/09 05:35:33;;;;;;;10.73;4.68;;;-9.70;99.90;;;-7.90;100.00;102824.00;4944339;28;20047;-76
2024/01/09 05:37:59;;;;;;;14.85;5.20;;;-9.70;99.90;;;-7.82;100.00;102832.63;4942554;29;20039;-75
2024/01/09 05:40:25;;;;;;;12.48;5.07;;;-9.70;99.90;;;-7.79;100.00;102834.31;4936466;29;20039;-75
2024/01/09 05:42:51;;;;;;;12.30;5.47;;;-9.70;99.90;;;-7.83;100.00;102836.16;4943034;29;20036;-75
2024/01/09 05:45:16;;;;;;;12.75;4.57;;;-9.80;99.90;;;-7.88;100.00;102829.28;4949783;28;20050;-75
2024/01/09 05:47:43;;;;;;;14.32;5.20;;;-9.70;99.90;;;-7.84;100.00;102831.78;4939679;29;20035;-75
2024/01/09 05:50:09;;;;;;;14.60;4.90;;;-9.80;99.90;;;-7.88;100.00;102838.09;4938322;28;20085;-75
2024/01/09 05:52:38;;;;;;;14.27;4.95;;;-9.70;99.90;;;-7.86;100.00;102843.34;4938695;28;20051;-75
2024/01/09 05:55:05;;;;;;;13.52;5.32;;;-9.70;99.90;;;-7.96;100.00;102830.38;4940273;28;20048;-76
2024/01/09 05:57:31;;;;;;;13.27;5.25;;;-9.80;99.90;;;-7.91;100.00;102842.63;4942631;29;20480;-76
2024/01/09 05:59:57;;;;;;;14.07;5.10;;;-9.80;99.90;;;-8.01;100.00;102837.53;4935573;29;20043;-76
2024/01/09 06:02:25;;;;;;;13.35;4.70;;;-9.70;99.90;;;-8.03;100.00;102847.31;4942587;28;20044;-75
2024/01/09 06:04:51;;;;;;;12.20;4.78;;;-9.70;99.90;;;-7.99;100.00;102846.31;4946132;28;20039;-75
2024/01/09 06:07:17;;;;;;;13.20;5.07;;;-9.80;99.90;;;-8.01;100.00;102839.34;4937113;29;20042;-75
2024/01/09 06:09:44;;;;;;;13.43;4.85;;;-9.80;99.90;;;-8.02;100.00;102845.56;4948464;28;20035;-75
2024/01/09 06:12:09;;;;;;;14.52;5.25;;;-9.80;99.90;;;-8.10;100.00;102848.41;4924293;29;20416;-75
2024/01/09 06:14:35;;;;;;;12.90;5.57;;;-9.80;99.90;;;-8.12;100.00;102843.13;4948215;28;20078;-75
2024/01/09 06:17:01;;;;;;;17.98;5.07;;;-9.80;99.90;;;-8.04;100.00;102848.22;4951630;28;20070;-75
2024/01/09 06:19:27;;;;;;;14.75;5.45;;;-9.70;99.90;;;-8.01;100.00;102842.84;4937311;29;20661;-75
2024/01/09 06:21:53;;;;;;;11.88;5.18;;;-9.80;99.90;;;-8.00;100.00;102841.09;4943672;28;20163;-75
2024/01/09 06:24:20;;;;;;;13.40;4.97;;;-9.80;99.90;;;-7.95;100.00;102844.47;4944558;28;20372;-75
2024/01/09 06:26:46;;;;;;;12.90;4.65;;;-9.90;99.90;;;-8.03;100.00;102847.31;4942336;28;20047;-76
2024/01/09 06:29:11;;;;;;;15.48;5.28;;;-10.00;99.90;;;-8.09;100.00;102852.78;4938126;28;20058;-76
2024/01/09 06:31:38;;;;;;;14.88;5.30;;;-10.00;99.90;;;-8.08;100.00;102851.88;4946335;29;20594;-75
2024/01/09 06:34:04;;;;;;;13.63;5.07;;;-10.10;99.90;;;-8.12;100.00;102855.53;4938888;28;20400;-76
2024/01/09 06:36:30;;;;;;;15.93;5.07;;;-10.10;99.90;;;-8.17;100.00;102855.63;4939982;29;20298;-77
2024/01/09 06:38:55;;;;;;;12.38;5.18;;;-10.20;99.90;;;-8.24;100.00;102862.00;4952260;29;20062;-77
2024/01/09 06:41:21;;;;;;;13.63;4.80;;;-10.20;99.90;;;-8.32;100.00;102856.91;4942673;28;20044;-77
2024/01/09 06:43:47;;;;;;;12.93;5.07;;;-10.30;99.90;;;-8.49;100.00;102837.97;4966224;28;20630;-76
2024/01/09 06:46:12;;;;;;;11.98;4.95;;;-10.30;99.90;;;-8.33;100.00;102860.47;4936417;29;20039;-76
2024/01/09 06:48:38;;;;;;;11.45;4.53;;;-10.30;99.90;;;-8.35;100.00;102862.28;4941585;29;20487;-75
2024/01/09 06:51:04;;;;;;;10.45;5.05;;;-10.30;99.90;;;-8.39;100.00;102861.50;4938062;29;20051;-75
2024/01/09 06:53:30;;;;;;;12.38;4.38;;;-10.30;99.90;;;-8.42;100.00;102853.63;4941054;28;20044;-75
2024/01/09 06:55:56;;;;;;;12.93;4.90;;;-10.40;99.90;;;-8.38;100.00;102860.56;4936576;29;20040;-75
2024/01/09 06:58:21;;;;;;;12.75;5.43;;;-10.40;99.90;;;-8.40;100.00;102858.91;4936173;29;20411;-74
2024/01/09 07:00:47;;;;;;;12.10;5.20;;;-10.40;99.90;;;-8.38;100.00;102857.94;4939792;29;20035;-74
2024/01/09 07:03:13;;;;;;;14.00;4.53;;;-10.40;99.90;;;-8.39;100.00;102864.13;4940951;28;20039;-75
2024/01/09 07:05:39;;;;;;;10.18;4.90;;;-10.40;99.90;;;-8.42;100.00;102855.41;4947473;28;20042;-74
2024/01/09 07:08:05;;;;;;;12.52;4.45;;;-10.40;99.90;;;-8.46;100.00;102859.91;4942035;28;20403;-75
2024/01/09 07:10:31;;;;;;;12.32;5.20;;;-10.40;99.90;;;-8.47;100.00;102859.97;4936262;29;20090;-75
2024/01/09 07:12:57;;;;;;;11.13;4.88;;;-10.30;99.90;;;-8.42;100.00;102860.72;4941804;29;20394;-75
2024/01/09 07:15:22;;;;;;;12.93;5.10;;;-10.30;99.90;;;-8.46;100.00;102864.34;4948252;28;20114;-75
2024/01/09 07:17:48;;;;;;;11.85;4.97;;;-10.30;99.90;;;-8.44;100.00;102867.81;4952088;28;20040;-75
2024/01/09 07:20:14;;;;;;;18.20;5.13;;;-10.30;99.90;;;-8.39;100.00;102865.94;4946173;29;20046;-74
2024/01/09 07:22:40;;;;;;;14.75;5.82;;;-10.10;99.90;;;-8.38;100.00;102860.56;4938987;29;20043;-73
2024/01/09 07:25:06;;;;;;;16.63;5.40;;;-10.10;99.90;;;-8.35;100.00;102857.00;4944835;28;20047;-74
2024/01/09 07:27:34;;;;;;;15.07;5.75;;;-10.10;99.90;;;-8.19;100.00;102869.84;4940310;29;20487;-74
2024/01/09 07:30:01;;;;;;;14.70;5.57;;;-10.10;99.90;;;-8.23;100.00;102872.56;4941277;29;20035;-73
2024/01/09 07:32:26;;;;;;;17.52;5.97;;;-10.00;99.90;;;-8.23;100.00;102882.28;4938985;28;20050;-74
2024/01/09 07:34:52;;;;;;;14.00;4.85;;;-10.10;99.90;;;-8.26;100.00;102882.38;4940933;28;20039;-73
2024/01/09 07:37:18;;;;;;;12.55;5.78;;;-10.00;99.90;;;-8.21;100.00;102885.78;4940904;29;20400;-74
2024/01/09 07:39:43;;;;;;;15.40;5.40;;;-9.90;99.90;;;-8.20;100.00;102884.00;4940703;29;20479;-73
2024/01/09 07:42:12;;;;;;;15.55;5.07;;;-9.90;99.90;;;-8.16;100.00;102883.88;4933843;29;20380;-75
2024/01/09 07:44:37;;;;;;;13.40;5.60;;;-9.80;99.90;;;-8.17;100.00;102884.78;4936767;29;20179;-74
2024/01/09 07:47:03;;;;;;;17.23;5.78;;;-9.60;99.90;;;-7.87;100.00;102889.31;4939643;28;20048;-74
2024/01/09 07:49:29;;;;;;;10.90;4.75;;;-9.60;99.90;;;-7.74;100.00;102892.50;4935701;29;20040;-75
2024/01/09 07:51:55;;;;;;;11.90;5.30;;;-9.60;99.90;;;-7.82;100.00;102898.91;4935645;29;20035;-76
2024/01/09 07:54:20;;;;;;;12.77;5.68;;;-9.60;99.90;;;-7.76;100.00;102894.34;4935675;29;20066;-77
2024/01/09 07:56:47;;;;;;;13.52;5.32;;;-9.50;99.90;;;-7.70;100.00;102902.97;4935864;29;20131;-76
2024/01/09 07:59:13;;;;;;;12.05;5.28;;;-9.50;99.90;;;-7.66;100.00;102901.13;4935642;28;20044;-76
2024/01/09 08:01:38;;;;;;;14.25;5.50;;;-9.50;99.90;;;-7.49;100.00;102905.94;4935648;29;20373;-76
2024/01/09 08:04:06;;;;;;;13.45;5.57;;;-9.50;99.90;;;-7.45;100.00;102907.59;4948135;28;20039;-77
2024/01/09 08:06:32;;;;;;;13.82;5.32;;;-9.50;99.90;;;-7.42;100.00;102909.28;4944812;29;20043;-76
2024/01/09 08:08:58;;;;;;;13.57;5.38;;;-9.40;99.90;;;-7.43;100.00;102900.44;4938349;29;20047;-76
2024/01/09 08:11:23;;;;;;;15.80;5.80;;;-9.30;99.90;;;-7.25;100.00;102912.34;4942167;29;20145;-76
2024/01/09 08:13:49;;;;;;;13.65;5.95;;;-9.20;99.90;;;-7.18;100.00;102899.75;4936131;29;20070;-76
2024/01/09 08:16:15;;;;;;;13.98;5.70;;;-9.20;99.90;;;-7.03;100.00;102901.06;4934504;29;20040;-76
2024/01/09 08:18:40;;;;;;;13.90;5.88;;;-9.10;99.90;;;-7.10;100.00;102905.72;4944055;28;20118;-76
2024/01/09 08:21:06;;;;;;;15.60;6.15;;;-9.00;99.90;;;-7.06;100.00;102892.34;4966407;28;20038;-76
2024/01/09 08:23:32;;;;;;;11.15;5.63;;;-8.90;99.90;;;-6.84;100.00;102900.50;4940172;28;20531;-76
2024/01/09 08:25:58;;;;;;;15.52;6.15;;;-8.80;99.90;;;-6.88;100.00;102885.59;4949196;29;20042;-76
2024/01/09 08:28:24;;;;;;;12.15;6.22;;;-8.70;99.90;;;-6.76;100.00;102901.16;4937000;28;20031;-76
2024/01/09 08:30:50;;;;;;;15.57;6.07;;;-8.60;99.90;;;-6.57;100.00;102901.44;4935260;28;20031;-77
2024/01/09 08:33:16;;;;;;;14.60;6.35;;;-8.40;99.90;;;-6.56;100.00;102900.50;4942950;29;20463;-76
2024/01/09 08:35:43;;;;;;;14.38;6.78;;;-8.30;99.90;;;-6.31;100.00;102902.38;4942652;28;20093;-76
2024/01/09 08:38:10;;;;;;;;;;;-8.30;99.90;;;-6.22;100.00;102888.75;4949646;29;20047;-76
2024/01/09 08:40:36;;;;;;;13.65;5.93;;;-8.20;99.90;;;-6.07;100.00;102882.06;4943743;29;19934;-76
2024/01/09 08:43:01;;;;;;;13.38;6.63;;;-8.10;99.90;;;-5.85;100.00;102891.03;4953168;28;20035;-76
2024/01/09 08:45:27;;;;;;;19.33;7.60;;;-7.90;99.90;;;-5.90;100.00;102901.84;4941753;29;20403;-78
2024/01/09 08:47:53;;;;;;;16.02;6.53;;;-7.80;99.90;;;-5.89;100.00;102890.28;4950802;28;20042;-79
2024/01/09 08:50:18;;;;;;;15.63;6.65;;;-7.70;99.90;;;-5.93;100.00;102900.16;4924323;29;20047;-79
2024/01/09 08:52:45;;;;;;;18.05;7.40;;;-7.50;99.90;;;-5.69;100.00;102910.84;4945717;28;20067;-78
2024/01/09 08:55:10;;;;;;;16.00;7.68;;;-7.40;99.90;;;-5.64;100.00;102910.69;4943260;29;20039;-78
2024/01/09 08:57:36;;;;;;;19.20;8.27;;;-7.30;99.90;;;-5.55;100.00;102907.69;4938740;29;20407;-78
2024/01/09 09:00:04;;;;;;;16.73;7.28;;;-7.20;99.90;;;-5.58;100.00;102901.59;4947130;29;20039;-78
2024/01/09 09:02:29;;;;;;;18.13;7.28;;;-7.00;99.90;;;-5.22;100.00;102914.50;4958353;28;20046;-78
2024/01/09 09:04:55;;;;;;;19.70;7.85;;;-6.90;99.90;;;-4.95;100.00;102914.38;4953662;28;20036;-79
2024/01/09 09:07:21;;;;;;;21.05;8.00;;;-6.80;99.90;;;-5.29;100.00;102905.00;4953957;28;20097;-79
2024/01/09 09:09:47;;;;;;;19.80;7.88;;;-6.70;99.90;;;-5.32;100.00;102902.44;4948241;28;20487;-79
2024/01/09 09:12:13;;;;;;;23.00;8.48;;;-6.60;99.90;;;-5.39;100.00;102918.63;4943387;29;20051;-79
2024/01/09 09:14:40;;;;;;;18.92;7.28;;;-6.50;99.90;;;-5.26;100.00;102916.38;4947312;29;20135;-79
2024/01/09 09:17:06;;;;;;;18.48;8.05;;;-6.50;99.90;;;-4.98;100.00;102923.31;4953603;29;20082;-78
2024/01/09 09:19:32;;;;;;;20.58;7.55;;;-6.40;99.90;;;-4.78;100.00;102925.19;4942633;28;20035;-77
2024/01/09 09:22:01;;;;;;;17.52;7.28;;;-6.20;99.90;;;-4.82;100.00;102912.94;4938258;29;20044;-79
2024/01/09 09:24:27;;;;;;;19.45;7.65;;;-6.20;99.90;;;-4.87;100.00;102922.06;4945244;28;20510;-78
2024/01/09 09:26:53;;;;;;;18.58;7.63;;;-6.10;99.90;;;-4.75;100.00;102920.72;4958896;28;20036;-78
2024/01/09 09:29:18;;;;;;;18.85;7.35;;;-6.10;99.90;;;-4.43;100.00;102910.56;4943566;29;20406;-77
2024/01/09 09:31:44;;;;;;;18.85;8.00;;;-6.00;99.90;;;-4.02;100.00;102907.94;4942869;29;20051;-77
2024/01/09 09:34:10;;;;;;;19.17;7.85;;;-5.90;99.90;;;-4.41;100.00;102911.34;4938087;29;20032;-77
2024/01/09 09:36:36;;;;;;;18.50;7.15;;;-5.70;99.90;;;-4.44;100.00;102904.34;4943833;29;20039;-80
2024/01/09 09:39:02;;;;;;;19.80;8.18;;;-5.70;99.90;;;-4.39;100.00;102898.84;4960592;28;20392;-81
2024/01/09 09:41:29;;;;;;;18.48;7.95;;;-5.40;99.90;;;-4.19;100.00;102898.00;4948638;28;20091;-79
2024/01/09 09:43:57;;;;;;;19.02;9.23;;;-5.00;99.90;;;-3.59;100.00;102910.53;4948315;29;20031;-82
2024/01/09 09:46:29;;;;;;;20.90;9.65;;;-4.10;99.90;;;-3.23;100.00;102906.25;4954301;28;20083;-81
2024/01/09 09:48:55;;;;;;;18.15;8.50;;;-3.10;99.90;;;-2.89;100.00;102888.69;4946408;28;20031;-82
2024/01/09 09:51:23;;;;;;;22.02;8.82;;;-2.20;99.90;;;-2.33;100.00;102854.72;4963114;28;20133;-81
2024/01/09 09:53:49;;;;;;;17.92;8.65;;;-1.20;99.90;;;-1.84;96.53;102854.97;4951018;28;20439;-82
2024/01/09 09:56:15;;;;;;;18.13;6.95;;;-0.30;99.90;;;-1.37;89.01;102835.44;4948211;29;20111;-79